KMKE

General Mitchell International Airport

Milwaukee, Wisconsin, USA
METAR KMKE 212152Z 03011KT 10SM -RA SCT065 BKN090 OVC110 16/14 A2984 RMK AO2 SLP104 P0002 T01560139
Observed Flight Rules
Jun-21 @ 21:52 UTC (15 minutes ago) Visual Flight Rules
Wind Visibility Clouds Conditions
30° at 11 knots 10 miles
  • Scattered at 6,500' AGL
  • Broken at 9,000' AGL
  • Overcast at 11,000' AGL
  • Light Rain
Temperatures Readings Precipitation
Current 16°C / 61°F
Dewpoint 14°C / 57°F
Humidity 88%
Altimeter 29.84" Hg
Pressure 1010.4 hPa
Elevation 206
Current Rain 0.02
METAR KMKE 212152Z 03011KT 10SM -RA SCT065 BKN090 OVC110 16/14 A2984 RMK AO2 SLP104 P0002 T01560139
Observed Flight Rules
Jun-21 @ 21:52 UTC
(15 minutes ago)
VFR
Wind Visibility
30° at 11 knots 10 miles
Clouds
  • Scattered at 6,500' AGL
  • Broken at 9,000' AGL
  • Overcast at 11,000' AGL
Conditions
  • Light Rain
Temperature Dewpoint
16°C / 61°F 14°C / 57°F
Humidity Altimeter Pressure
88% 29.84" Hg 1010.4 hPa
Current Rain
0.02